sensor_id;sensor_type;location;lat;lon;timestamp;P1;durP1;ratioP1;P2;durP2;ratioP2
50086;SDS011;35967;50.718;7.050;2024-02-16T00:00:36;6.43;;;1.00;;
50086;SDS011;35967;50.718;7.050;2024-02-16T00:10:40;4.43;;;1.00;;
50086;SDS011;35967;50.718;7.050;2024-02-16T00:20:45;4.47;;;1.10;;
50086;SDS011;35967;50.718;7.050;2024-02-16T00:30:49;3.53;;;0.87;;
50086;SDS011;35967;50.718;7.050;2024-02-16T00:40:53;4.10;;;1.00;;
50086;SDS011;35967;50.718;7.050;2024-02-16T00:50:56;4.73;;;1.00;;
50086;SDS011;35967;50.718;7.050;2024-02-16T01:01:00;6.03;;;1.00;;
50086;SDS011;35967;50.718;7.050;2024-02-16T01:11:05;4.07;;;1.00;;
50086;SDS011;35967;50.718;7.050;2024-02-16T01:21:10;3.63;;;0.83;;
50086;SDS011;35967;50.718;7.050;2024-02-16T01:31:14;3.97;;;0.80;;
50086;SDS011;35967;50.718;7.050;2024-02-16T01:41:18;5.70;;;1.20;;
50086;SDS011;35967;50.718;7.050;2024-02-16T01:51:22;6.23;;;1.03;;
50086;SDS011;35967;50.718;7.050;2024-02-16T02:01:29;5.60;;;1.00;;
50086;SDS011;35967;50.718;7.050;2024-02-16T02:11:32;3.00;;;0.90;;
50086;SDS011;35967;50.718;7.050;2024-02-16T02:21:37;4.93;;;0.90;;
50086;SDS011;35967;50.718;7.050;2024-02-16T02:31:41;4.47;;;1.10;;
50086;SDS011;35967;50.718;7.050;2024-02-16T02:41:44;2.33;;;1.00;;
50086;SDS011;35967;50.718;7.050;2024-02-16T02:51:48;3.83;;;1.10;;
50086;SDS011;35967;50.718;7.050;2024-02-16T03:01:51;4.00;;;0.97;;
50086;SDS011;35967;50.718;7.050;2024-02-16T03:11:56;4.40;;;1.10;;
50086;SDS011;35967;50.718;7.050;2024-02-16T03:21:59;5.43;;;1.17;;
50086;SDS011;35967;50.718;7.050;2024-02-16T03:32:04;4.00;;;1.20;;
50086;SDS011;35967;50.718;7.050;2024-02-16T03:42:06;7.50;;;1.50;;
50086;SDS011;35967;50.718;7.050;2024-02-16T03:52:12;3.70;;;1.17;;
50086;SDS011;35967;50.718;7.050;2024-02-16T04:02:15;8.73;;;1.67;;
50086;SDS011;35967;50.718;7.050;2024-02-16T04:12:21;5.23;;;1.33;;
50086;SDS011;35967;50.718;7.050;2024-02-16T04:22:24;8.30;;;1.20;;
50086;SDS011;35967;50.718;7.050;2024-02-16T04:32:28;4.27;;;1.00;;
50086;SDS011;35967;50.718;7.050;2024-02-16T04:42:31;3.63;;;1.20;;
50086;SDS011;35967;50.718;7.050;2024-02-16T04:52:35;6.10;;;1.17;;
50086;SDS011;35967;50.718;7.050;2024-02-16T05:02:38;4.70;;;1.27;;
50086;SDS011;35967;50.718;7.050;2024-02-16T05:12:43;4.43;;;0.93;;
50086;SDS011;35967;50.718;7.050;2024-02-16T05:22:47;3.30;;;1.00;;
50086;SDS011;35967;50.718;7.050;2024-02-16T05:32:52;3.77;;;1.13;;
50086;SDS011;35967;50.718;7.050;2024-02-16T05:43:00;3.97;;;1.10;;
50086;SDS011;35967;50.718;7.050;2024-02-16T05:53:05;3.07;;;1.07;;
50086;SDS011;35967;50.718;7.050;2024-02-16T06:03:08;6.50;;;1.30;;
50086;SDS011;35967;50.718;7.050;2024-02-16T06:13:13;3.57;;;1.10;;
50086;SDS011;35967;50.718;7.050;2024-02-16T06:23:15;8.30;;;1.30;;
50086;SDS011;35967;50.718;7.050;2024-02-16T06:33:20;3.13;;;0.97;;
50086;SDS011;35967;50.718;7.050;2024-02-16T06:43:24;3.93;;;1.30;;
50086;SDS011;35967;50.718;7.050;2024-02-16T06:53:28;8.23;;;1.20;;
50086;SDS011;35967;50.718;7.050;2024-02-16T07:03:31;3.10;;;1.20;;
50086;SDS011;35967;50.718;7.050;2024-02-16T07:13:36;6.43;;;1.30;;
50086;SDS011;35967;50.718;7.050;2024-02-16T07:23:40;6.37;;;1.20;;
50086;SDS011;35967;50.718;7.050;2024-02-16T07:33:44;9.47;;;1.50;;
50086;SDS011;35967;50.718;7.050;2024-02-16T07:43:48;6.30;;;1.40;;
50086;SDS011;35967;50.718;7.050;2024-02-16T07:53:52;4.43;;;1.30;;
50086;SDS011;35967;50.718;7.050;2024-02-16T08:03:55;5.57;;;1.77;;
50086;SDS011;35967;50.718;7.050;2024-02-16T08:13:59;5.00;;;1.40;;
50086;SDS011;35967;50.718;7.050;2024-02-16T08:24:02;6.43;;;1.33;;
50086;SDS011;35967;50.718;7.050;2024-02-16T08:34:07;6.93;;;1.30;;
50086;SDS011;35967;50.718;7.050;2024-02-16T08:44:12;3.87;;;1.10;;
50086;SDS011;35967;50.718;7.050;2024-02-16T08:54:16;9.43;;;1.40;;
50086;SDS011;35967;50.718;7.050;2024-02-16T09:04:21;6.40;;;1.23;;
50086;SDS011;35967;50.718;7.050;2024-02-16T09:14:25;5.83;;;1.03;;
50086;SDS011;35967;50.718;7.050;2024-02-16T09:24:28;8.23;;;1.43;;
50086;SDS011;35967;50.718;7.050;2024-02-16T09:34:33;11.83;;;1.63;;
50086;SDS011;35967;50.718;7.050;2024-02-16T09:44:36;6.03;;;1.23;;
50086;SDS011;35967;50.718;7.050;2024-02-16T09:54:41;10.40;;;1.53;;
50086;SDS011;35967;50.718;7.050;2024-02-16T10:04:45;4.47;;;1.37;;
50086;SDS011;35967;50.718;7.050;2024-02-16T10:14:54;11.00;;;1.57;;
50086;SDS011;35967;50.718;7.050;2024-02-16T10:25:06;5.87;;;1.17;;
50086;SDS011;35967;50.718;7.050;2024-02-16T10:35:14;8.77;;;1.93;;
50086;SDS011;35967;50.718;7.050;2024-02-16T10:45:19;6.73;;;1.40;;
50086;SDS011;35967;50.718;7.050;2024-02-16T10:55:25;5.90;;;1.73;;
50086;SDS011;35967;50.718;7.050;2024-02-16T11:17:42;8.40;;;1.87;;
50086;SDS011;35967;50.718;7.050;2024-02-16T11:27:45;8.97;;;1.90;;
50086;SDS011;35967;50.718;7.050;2024-02-16T11:37:51;4.47;;;1.10;;
50086;SDS011;35967;50.718;7.050;2024-02-16T11:48:02;10.27;;;2.13;;
50086;SDS011;35967;50.718;7.050;2024-02-16T11:58:08;5.23;;;1.63;;
50086;SDS011;35967;50.718;7.050;2024-02-16T12:08:12;7.30;;;1.80;;
50086;SDS011;35967;50.718;7.050;2024-02-16T12:18:20;5.50;;;1.90;;
50086;SDS011;35967;50.718;7.050;2024-02-16T12:28:24;6.03;;;1.60;;
50086;SDS011;35967;50.718;7.050;2024-02-16T12:38:30;7.13;;;1.90;;
50086;SDS011;35967;50.718;7.050;2024-02-16T12:48:34;14.67;;;1.93;;
50086;SDS011;35967;50.718;7.050;2024-02-16T12:58:38;10.23;;;1.70;;
50086;SDS011;35967;50.718;7.050;2024-02-16T13:08:42;5.17;;;1.70;;
50086;SDS011;35967;50.718;7.050;2024-02-16T13:18:46;7.67;;;1.93;;
50086;SDS011;35967;50.718;7.050;2024-02-16T13:28:50;7.47;;;2.00;;
50086;SDS011;35967;50.718;7.050;2024-02-16T13:38:55;9.00;;;2.63;;
50086;SDS011;35967;50.718;7.050;2024-02-16T13:48:58;7.40;;;2.17;;
50086;SDS011;35967;50.718;7.050;2024-02-16T13:59:03;4.23;;;2.40;;
50086;SDS011;35967;50.718;7.050;2024-02-16T14:09:06;14.67;;;2.97;;
50086;SDS011;35967;50.718;7.050;2024-02-16T14:19:25;11.90;;;2.90;;
50086;SDS011;35967;50.718;7.050;2024-02-16T14:29:28;5.80;;;2.27;;
50086;SDS011;35967;50.718;7.050;2024-02-16T14:39:32;9.53;;;2.43;;
50086;SDS011;35967;50.718;7.050;2024-02-16T14:49:36;5.77;;;2.13;;
50086;SDS011;35967;50.718;7.050;2024-02-16T14:59:40;5.20;;;1.97;;
50086;SDS011;35967;50.718;7.050;2024-02-16T15:09:44;5.80;;;2.30;;
50086;SDS011;35967;50.718;7.050;2024-02-16T15:19:49;5.90;;;2.53;;
50086;SDS011;35967;50.718;7.050;2024-02-16T15:29:53;5.93;;;2.67;;
50086;SDS011;35967;50.718;7.050;2024-02-16T15:39:58;7.10;;;2.40;;
50086;SDS011;35967;50.718;7.050;2024-02-16T15:50:02;6.33;;;3.00;;
50086;SDS011;35967;50.718;7.050;2024-02-16T16:00:10;5.50;;;2.10;;
50086;SDS011;35967;50.718;7.050;2024-02-16T16:10:14;5.23;;;1.70;;
50086;SDS011;35967;50.718;7.050;2024-02-16T16:20:19;6.43;;;3.10;;
50086;SDS011;35967;50.718;7.050;2024-02-16T16:30:23;4.17;;;1.40;;
50086;SDS011;35967;50.718;7.050;2024-02-16T16:40:27;3.40;;;1.37;;
50086;SDS011;35967;50.718;7.050;2024-02-16T16:50:30;3.63;;;1.70;;
50086;SDS011;35967;50.718;7.050;2024-02-16T17:00:35;3.37;;;1.40;;
50086;SDS011;35967;50.718;7.050;2024-02-16T17:10:39;5.40;;;1.50;;
50086;SDS011;35967;50.718;7.050;2024-02-16T17:20:43;4.23;;;2.30;;
50086;SDS011;35967;50.718;7.050;2024-02-16T17:30:49;4.00;;;1.50;;
50086;SDS011;35967;50.718;7.050;2024-02-16T17:40:54;4.67;;;1.70;;
50086;SDS011;35967;50.718;7.050;2024-02-16T17:50:57;4.93;;;1.70;;
50086;SDS011;35967;50.718;7.050;2024-02-16T18:01:01;5.13;;;2.20;;
50086;SDS011;35967;50.718;7.050;2024-02-16T18:11:05;3.57;;;2.30;;
50086;SDS011;35967;50.718;7.050;2024-02-16T18:21:09;3.57;;;2.17;;
50086;SDS011;35967;50.718;7.050;2024-02-16T18:31:14;5.10;;;3.00;;
50086;SDS011;35967;50.718;7.050;2024-02-16T18:41:18;5.73;;;3.80;;
50086;SDS011;35967;50.718;7.050;2024-02-16T18:51:21;7.07;;;4.87;;
50086;SDS011;35967;50.718;7.050;2024-02-16T19:01:26;7.57;;;5.20;;
50086;SDS011;35967;50.718;7.050;2024-02-16T19:11:31;11.23;;;6.57;;
50086;SDS011;35967;50.718;7.050;2024-02-16T19:21:35;11.73;;;7.20;;
50086;SDS011;35967;50.718;7.050;2024-02-16T19:31:39;9.03;;;7.70;;
50086;SDS011;35967;50.718;7.050;2024-02-16T19:41:46;9.17;;;7.80;;
50086;SDS011;35967;50.718;7.050;2024-02-16T19:51:50;11.53;;;7.53;;
50086;SDS011;35967;50.718;7.050;2024-02-16T20:01:54;10.43;;;9.10;;
50086;SDS011;35967;50.718;7.050;2024-02-16T20:11:58;15.97;;;11.37;;
50086;SDS011;35967;50.718;7.050;2024-02-16T20:22:03;15.20;;;9.57;;
50086;SDS011;35967;50.718;7.050;2024-02-16T20:32:06;14.47;;;8.17;;
50086;SDS011;35967;50.718;7.050;2024-02-16T20:42:10;9.47;;;7.33;;
50086;SDS011;35967;50.718;7.050;2024-02-16T20:52:14;13.00;;;8.80;;
50086;SDS011;35967;50.718;7.050;2024-02-16T21:02:18;12.30;;;9.67;;
50086;SDS011;35967;50.718;7.050;2024-02-16T21:12:21;16.70;;;10.50;;
50086;SDS011;35967;50.718;7.050;2024-02-16T21:22:26;16.70;;;11.97;;
50086;SDS011;35967;50.718;7.050;2024-02-16T21:32:29;17.10;;;10.70;;
50086;SDS011;35967;50.718;7.050;2024-02-16T21:42:34;14.63;;;10.33;;
50086;SDS011;35967;50.718;7.050;2024-02-16T21:52:37;15.17;;;11.77;;
50086;SDS011;35967;50.718;7.050;2024-02-16T22:02:41;17.33;;;12.47;;
50086;SDS011;35967;50.718;7.050;2024-02-16T22:12:45;21.63;;;13.37;;
50086;SDS011;35967;50.718;7.050;2024-02-16T22:22:50;19.03;;;12.97;;
50086;SDS011;35967;50.718;7.050;2024-02-16T22:32:54;18.60;;;13.00;;
50086;SDS011;35967;50.718;7.050;2024-02-16T22:42:58;24.03;;;14.90;;
50086;SDS011;35967;50.718;7.050;2024-02-16T22:53:01;19.20;;;13.07;;
50086;SDS011;35967;50.718;7.050;2024-02-16T23:03:07;19.40;;;13.07;;
50086;SDS011;35967;50.718;7.050;2024-02-16T23:13:13;27.63;;;17.70;;
50086;SDS011;35967;50.718;7.050;2024-02-16T23:23:19;27.17;;;18.83;;
50086;SDS011;35967;50.718;7.050;2024-02-16T23:33:22;30.90;;;21.53;;
50086;SDS011;35967;50.718;7.050;2024-02-16T23:43:28;33.63;;;22.00;;
50086;SDS011;35967;50.718;7.050;2024-02-16T23:53:32;31.73;;;19.77;;
